sensor_id;sensor_type;location;lat;lon;timestamp;P1;durP1;ratioP1;P2;durP2;ratioP2
8474;SDS011;4274;52.012;8.448;2023-09-19T00:01:28;48.40;;;5.03;;
8474;SDS011;4274;52.012;8.448;2023-09-19T00:03:55;53.27;;;4.77;;
8474;SDS011;4274;52.012;8.448;2023-09-19T00:06:22;45.77;;;4.80;;
8474;SDS011;4274;52.012;8.448;2023-09-19T00:08:50;47.33;;;5.10;;
8474;SDS011;4274;52.012;8.448;2023-09-19T00:11:19;49.63;;;5.67;;
8474;SDS011;4274;52.012;8.448;2023-09-19T00:13:47;51.07;;;5.70;;
8474;SDS011;4274;52.012;8.448;2023-09-19T00:16:14;45.97;;;4.67;;
8474;SDS011;4274;52.012;8.448;2023-09-19T00:18:40;47.80;;;5.20;;
8474;SDS011;4274;52.012;8.448;2023-09-19T00:21:05;49.70;;;5.33;;
8474;SDS011;4274;52.012;8.448;2023-09-19T00:23:32;46.33;;;5.37;;
8474;SDS011;4274;52.012;8.448;2023-09-19T00:25:58;50.20;;;5.10;;
8474;SDS011;4274;52.012;8.448;2023-09-19T00:28:24;54.53;;;5.30;;
8474;SDS011;4274;52.012;8.448;2023-09-19T00:30:51;61.40;;;5.20;;
8474;SDS011;4274;52.012;8.448;2023-09-19T00:33:16;53.07;;;5.13;;
8474;SDS011;4274;52.012;8.448;2023-09-19T00:35:50;53.20;;;4.73;;
8474;SDS011;4274;52.012;8.448;2023-09-19T00:38:17;56.87;;;4.90;;
8474;SDS011;4274;52.012;8.448;2023-09-19T00:40:46;51.30;;;5.57;;
8474;SDS011;4274;52.012;8.448;2023-09-19T00:43:12;50.30;;;5.20;;
8474;SDS011;4274;52.012;8.448;2023-09-19T00:45:38;52.80;;;5.83;;
8474;SDS011;4274;52.012;8.448;2023-09-19T00:48:07;54.20;;;4.63;;
8474;SDS011;4274;52.012;8.448;2023-09-19T00:50:34;64.73;;;6.20;;
8474;SDS011;4274;52.012;8.448;2023-09-19T00:53:00;52.83;;;4.80;;
8474;SDS011;4274;52.012;8.448;2023-09-19T00:55:26;52.10;;;5.70;;
8474;SDS011;4274;52.012;8.448;2023-09-19T00:57:55;47.97;;;4.90;;
8474;SDS011;4274;52.012;8.448;2023-09-19T01:00:21;50.67;;;4.80;;
8474;SDS011;4274;52.012;8.448;2023-09-19T01:02:48;46.30;;;4.70;;
8474;SDS011;4274;52.012;8.448;2023-09-19T01:05:14;54.93;;;5.17;;
8474;SDS011;4274;52.012;8.448;2023-09-19T01:07:40;47.40;;;5.43;;
8474;SDS011;4274;52.012;8.448;2023-09-19T01:10:07;53.20;;;6.63;;
8474;SDS011;4274;52.012;8.448;2023-09-19T01:12:46;50.73;;;5.93;;
8474;SDS011;4274;52.012;8.448;2023-09-19T01:21:08;56.93;;;6.43;;
8474;SDS011;4274;52.012;8.448;2023-09-19T01:31:58;55.47;;;6.10;;
8474;SDS011;4274;52.012;8.448;2023-09-19T01:34:26;63.50;;;6.27;;
8474;SDS011;4274;52.012;8.448;2023-09-19T01:36:52;52.77;;;5.90;;
8474;SDS011;4274;52.012;8.448;2023-09-19T01:39:17;58.30;;;5.30;;
8474;SDS011;4274;52.012;8.448;2023-09-19T01:41:46;82.30;;;5.93;;
8474;SDS011;4274;52.012;8.448;2023-09-19T01:44:51;51.63;;;5.20;;
8474;SDS011;4274;52.012;8.448;2023-09-19T01:47:23;55.40;;;5.33;;
8474;SDS011;4274;52.012;8.448;2023-09-19T01:52:38;53.13;;;5.50;;
8474;SDS011;4274;52.012;8.448;2023-09-19T01:55:26;54.77;;;5.60;;
8474;SDS011;4274;52.012;8.448;2023-09-19T01:58:00;50.17;;;6.00;;
8474;SDS011;4274;52.012;8.448;2023-09-19T02:00:32;48.57;;;5.10;;
8474;SDS011;4274;52.012;8.448;2023-09-19T02:03:01;48.57;;;5.80;;
8474;SDS011;4274;52.012;8.448;2023-09-19T02:05:27;58.53;;;5.97;;
8474;SDS011;4274;52.012;8.448;2023-09-19T02:07:53;55.07;;;5.60;;
8474;SDS011;4274;52.012;8.448;2023-09-19T02:10:20;55.33;;;5.50;;
8474;SDS011;4274;52.012;8.448;2023-09-19T02:12:47;52.83;;;4.63;;
8474;SDS011;4274;52.012;8.448;2023-09-19T02:15:13;47.70;;;5.13;;
8474;SDS011;4274;52.012;8.448;2023-09-19T02:17:40;49.27;;;4.83;;
8474;SDS011;4274;52.012;8.448;2023-09-19T02:20:07;60.77;;;6.20;;
8474;SDS011;4274;52.012;8.448;2023-09-19T02:22:35;52.30;;;5.30;;
8474;SDS011;4274;52.012;8.448;2023-09-19T02:25:01;62.70;;;5.83;;
8474;SDS011;4274;52.012;8.448;2023-09-19T02:27:29;55.43;;;5.00;;
8474;SDS011;4274;52.012;8.448;2023-09-19T02:29:55;52.00;;;5.07;;
8474;SDS011;4274;52.012;8.448;2023-09-19T02:32:21;47.87;;;4.70;;
8474;SDS011;4274;52.012;8.448;2023-09-19T02:34:48;53.87;;;4.90;;
8474;SDS011;4274;52.012;8.448;2023-09-19T02:37:13;54.93;;;5.00;;
8474;SDS011;4274;52.012;8.448;2023-09-19T02:39:41;65.37;;;5.93;;
8474;SDS011;4274;52.012;8.448;2023-09-19T02:42:07;53.40;;;4.10;;
8474;SDS011;4274;52.012;8.448;2023-09-19T02:44:32;57.90;;;4.70;;
8474;SDS011;4274;52.012;8.448;2023-09-19T02:46:58;54.93;;;4.53;;
8474;SDS011;4274;52.012;8.448;2023-09-19T02:49:24;48.53;;;3.93;;
8474;SDS011;4274;52.012;8.448;2023-09-19T02:51:50;60.40;;;4.47;;
8474;SDS011;4274;52.012;8.448;2023-09-19T02:54:16;46.73;;;3.77;;
8474;SDS011;4274;52.012;8.448;2023-09-19T02:56:42;49.50;;;4.17;;
8474;SDS011;4274;52.012;8.448;2023-09-19T02:59:08;47.30;;;4.33;;
8474;SDS011;4274;52.012;8.448;2023-09-19T03:01:35;50.80;;;4.10;;
8474;SDS011;4274;52.012;8.448;2023-09-19T03:04:02;55.00;;;5.07;;
8474;SDS011;4274;52.012;8.448;2023-09-19T03:06:28;59.70;;;4.40;;
8474;SDS011;4274;52.012;8.448;2023-09-19T03:08:56;58.33;;;5.27;;
8474;SDS011;4274;52.012;8.448;2023-09-19T03:11:21;52.17;;;4.33;;
8474;SDS011;4274;52.012;8.448;2023-09-19T03:13:52;52.63;;;4.77;;
8474;SDS011;4274;52.012;8.448;2023-09-19T03:16:18;54.40;;;4.63;;
8474;SDS011;4274;52.012;8.448;2023-09-19T03:18:46;57.27;;;4.73;;
8474;SDS011;4274;52.012;8.448;2023-09-19T03:21:13;51.57;;;4.50;;
8474;SDS011;4274;52.012;8.448;2023-09-19T03:23:42;63.40;;;4.80;;
8474;SDS011;4274;52.012;8.448;2023-09-19T03:26:12;48.53;;;4.30;;
8474;SDS011;4274;52.012;8.448;2023-09-19T03:28:39;49.50;;;4.80;;
8474;SDS011;4274;52.012;8.448;2023-09-19T03:31:06;54.70;;;5.00;;
8474;SDS011;4274;52.012;8.448;2023-09-19T03:33:32;55.77;;;4.80;;
8474;SDS011;4274;52.012;8.448;2023-09-19T03:35:58;47.90;;;4.20;;
8474;SDS011;4274;52.012;8.448;2023-09-19T03:38:26;48.83;;;4.60;;
8474;SDS011;4274;52.012;8.448;2023-09-19T03:40:53;49.43;;;4.93;;
8474;SDS011;4274;52.012;8.448;2023-09-19T03:43:18;56.70;;;4.47;;
8474;SDS011;4274;52.012;8.448;2023-09-19T03:45:44;64.47;;;4.40;;
8474;SDS011;4274;52.012;8.448;2023-09-19T03:48:11;54.70;;;4.30;;
8474;SDS011;4274;52.012;8.448;2023-09-19T03:50:38;51.80;;;3.83;;
8474;SDS011;4274;52.012;8.448;2023-09-19T03:53:03;50.63;;;3.67;;
8474;SDS011;4274;52.012;8.448;2023-09-19T03:55:30;50.17;;;3.83;;
8474;SDS011;4274;52.012;8.448;2023-09-19T03:57:55;60.93;;;4.50;;
8474;SDS011;4274;52.012;8.448;2023-09-19T04:00:21;55.23;;;4.57;;
8474;SDS011;4274;52.012;8.448;2023-09-19T04:02:49;54.40;;;4.60;;
8474;SDS011;4274;52.012;8.448;2023-09-19T04:05:16;71.60;;;3.70;;
8474;SDS011;4274;52.012;8.448;2023-09-19T04:07:42;56.23;;;4.20;;
8474;SDS011;4274;52.012;8.448;2023-09-19T04:10:08;47.17;;;4.10;;
8474;SDS011;4274;52.012;8.448;2023-09-19T04:12:36;53.00;;;4.03;;
8474;SDS011;4274;52.012;8.448;2023-09-19T04:15:02;49.77;;;4.13;;
8474;SDS011;4274;52.012;8.448;2023-09-19T04:17:28;54.53;;;4.37;;
8474;SDS011;4274;52.012;8.448;2023-09-19T04:19:53;50.57;;;4.07;;
8474;SDS011;4274;52.012;8.448;2023-09-19T04:22:19;61.13;;;4.53;;
8474;SDS011;4274;52.012;8.448;2023-09-19T04:24:45;64.33;;;4.20;;
8474;SDS011;4274;52.012;8.448;2023-09-19T04:27:10;65.70;;;4.97;;
8474;SDS011;4274;52.012;8.448;2023-09-19T04:29:39;58.93;;;4.00;;
8474;SDS011;4274;52.012;8.448;2023-09-19T04:32:06;56.87;;;3.70;;
8474;SDS011;4274;52.012;8.448;2023-09-19T04:34:32;65.30;;;5.03;;
8474;SDS011;4274;52.012;8.448;2023-09-19T04:36:59;56.50;;;4.70;;
8474;SDS011;4274;52.012;8.448;2023-09-19T04:39:25;57.67;;;5.60;;
8474;SDS011;4274;52.012;8.448;2023-09-19T04:41:52;58.80;;;4.33;;
8474;SDS011;4274;52.012;8.448;2023-09-19T04:44:17;71.37;;;4.13;;
8474;SDS011;4274;52.012;8.448;2023-09-19T04:46:44;55.50;;;4.40;;
8474;SDS011;4274;52.012;8.448;2023-09-19T04:49:11;63.30;;;4.77;;
8474;SDS011;4274;52.012;8.448;2023-09-19T04:51:40;54.03;;;4.50;;
8474;SDS011;4274;52.012;8.448;2023-09-19T04:54:06;59.57;;;4.77;;
8474;SDS011;4274;52.012;8.448;2023-09-19T04:56:32;55.97;;;4.67;;
8474;SDS011;4274;52.012;8.448;2023-09-19T04:58:58;54.83;;;4.13;;
8474;SDS011;4274;52.012;8.448;2023-09-19T05:01:25;56.37;;;4.60;;
8474;SDS011;4274;52.012;8.448;2023-09-19T05:03:51;59.07;;;5.53;;
8474;SDS011;4274;52.012;8.448;2023-09-19T05:06:19;66.43;;;4.20;;
8474;SDS011;4274;52.012;8.448;2023-09-19T05:08:48;60.43;;;4.30;;
8474;SDS011;4274;52.012;8.448;2023-09-19T05:11:16;55.23;;;4.40;;
8474;SDS011;4274;52.012;8.448;2023-09-19T05:13:47;53.03;;;4.40;;
8474;SDS011;4274;52.012;8.448;2023-09-19T05:16:15;67.23;;;5.13;;
8474;SDS011;4274;52.012;8.448;2023-09-19T05:18:43;56.47;;;4.63;;
8474;SDS011;4274;52.012;8.448;2023-09-19T05:21:09;60.60;;;4.50;;
8474;SDS011;4274;52.012;8.448;2023-09-19T05:23:34;55.90;;;4.37;;
8474;SDS011;4274;52.012;8.448;2023-09-19T05:26:00;59.63;;;4.27;;
8474;SDS011;4274;52.012;8.448;2023-09-19T05:28:26;58.43;;;5.00;;
8474;SDS011;4274;52.012;8.448;2023-09-19T05:30:52;61.40;;;4.70;;
8474;SDS011;4274;52.012;8.448;2023-09-19T05:33:18;55.43;;;4.77;;
8474;SDS011;4274;52.012;8.448;2023-09-19T05:35:44;58.63;;;3.23;;
8474;SDS011;4274;52.012;8.448;2023-09-19T05:38:12;56.57;;;4.03;;
8474;SDS011;4274;52.012;8.448;2023-09-19T05:40:38;55.67;;;4.20;;
8474;SDS011;4274;52.012;8.448;2023-09-19T05:43:07;59.10;;;4.23;;
8474;SDS011;4274;52.012;8.448;2023-09-19T05:45:33;55.07;;;3.93;;
8474;SDS011;4274;52.012;8.448;2023-09-19T05:48:06;57.63;;;4.10;;
8474;SDS011;4274;52.012;8.448;2023-09-19T05:50:40;52.70;;;4.10;;
8474;SDS011;4274;52.012;8.448;2023-09-19T05:53:07;55.27;;;4.00;;
8474;SDS011;4274;52.012;8.448;2023-09-19T05:55:33;50.20;;;3.93;;
8474;SDS011;4274;52.012;8.448;2023-09-19T05:57:58;55.33;;;4.63;;
8474;SDS011;4274;52.012;8.448;2023-09-19T06:00:24;69.47;;;4.50;;
8474;SDS011;4274;52.012;8.448;2023-09-19T06:02:56;55.57;;;4.10;;
8474;SDS011;4274;52.012;8.448;2023-09-19T06:05:23;53.27;;;4.50;;
8474;SDS011;4274;52.012;8.448;2023-09-19T06:07:49;59.33;;;4.03;;
8474;SDS011;4274;52.012;8.448;2023-09-19T06:10:17;57.37;;;4.07;;
8474;SDS011;4274;52.012;8.448;2023-09-19T06:12:43;50.93;;;3.70;;
8474;SDS011;4274;52.012;8.448;2023-09-19T06:15:09;49.27;;;3.80;;
8474;SDS011;4274;52.012;8.448;2023-09-19T06:17:40;53.20;;;3.73;;
8474;SDS011;4274;52.012;8.448;2023-09-19T06:20:15;52.70;;;3.33;;
8474;SDS011;4274;52.012;8.448;2023-09-19T06:22:45;53.10;;;3.67;;
8474;SDS011;4274;52.012;8.448;2023-09-19T06:25:11;48.53;;;3.30;;
8474;SDS011;4274;52.012;8.448;2023-09-19T06:27:42;55.20;;;3.40;;
8474;SDS011;4274;52.012;8.448;2023-09-19T06:30:09;50.63;;;3.47;;
8474;SDS011;4274;52.012;8.448;2023-09-19T06:32:42;49.73;;;3.30;;
8474;SDS011;4274;52.012;8.448;2023-09-19T06:35:14;52.67;;;4.73;;
8474;SDS011;4274;52.012;8.448;2023-09-19T06:37:41;56.77;;;4.10;;
8474;SDS011;4274;52.012;8.448;2023-09-19T06:42:38;63.70;;;3.60;;
8474;SDS011;4274;52.012;8.448;2023-09-19T06:45:05;52.90;;;3.77;;
8474;SDS011;4274;52.012;8.448;2023-09-19T06:47:31;52.17;;;3.40;;
8474;SDS011;4274;52.012;8.448;2023-09-19T06:49:57;52.27;;;3.50;;
8474;SDS011;4274;52.012;8.448;2023-09-19T06:52:22;55.50;;;3.63;;
8474;SDS011;4274;52.012;8.448;2023-09-19T06:54:48;58.20;;;3.60;;
8474;SDS011;4274;52.012;8.448;2023-09-19T06:57:15;52.53;;;3.23;;
8474;SDS011;4274;52.012;8.448;2023-09-19T06:59:41;49.77;;;3.30;;
8474;SDS011;4274;52.012;8.448;2023-09-19T07:02:07;57.73;;;3.93;;
8474;SDS011;4274;52.012;8.448;2023-09-19T07:04:33;62.87;;;4.60;;
8474;SDS011;4274;52.012;8.448;2023-09-19T07:06:59;49.60;;;3.27;;
8474;SDS011;4274;52.012;8.448;2023-09-19T07:09:24;48.63;;;3.43;;
8474;SDS011;4274;52.012;8.448;2023-09-19T07:11:52;56.07;;;3.90;;
8474;SDS011;4274;52.012;8.448;2023-09-19T07:14:18;54.60;;;3.67;;
8474;SDS011;4274;52.012;8.448;2023-09-19T07:16:44;48.23;;;3.10;;
8474;SDS011;4274;52.012;8.448;2023-09-19T07:19:10;49.30;;;3.20;;
8474;SDS011;4274;52.012;8.448;2023-09-19T07:21:36;51.80;;;3.17;;
8474;SDS011;4274;52.012;8.448;2023-09-19T07:24:03;54.10;;;3.67;;
8474;SDS011;4274;52.012;8.448;2023-09-19T07:26:29;53.73;;;3.33;;
8474;SDS011;4274;52.012;8.448;2023-09-19T07:28:56;53.37;;;3.47;;
8474;SDS011;4274;52.012;8.448;2023-09-19T07:31:22;53.10;;;3.40;;
8474;SDS011;4274;52.012;8.448;2023-09-19T07:33:48;62.30;;;5.00;;
8474;SDS011;4274;52.012;8.448;2023-09-19T07:36:14;45.70;;;3.30;;
8474;SDS011;4274;52.012;8.448;2023-09-19T07:38:41;52.83;;;4.03;;
8474;SDS011;4274;52.012;8.448;2023-09-19T07:41:07;56.80;;;3.93;;
8474;SDS011;4274;52.012;8.448;2023-09-19T07:43:34;53.77;;;4.20;;
8474;SDS011;4274;52.012;8.448;2023-09-19T07:46:04;55.57;;;3.90;;
8474;SDS011;4274;52.012;8.448;2023-09-19T07:48:32;48.10;;;3.10;;
8474;SDS011;4274;52.012;8.448;2023-09-19T07:51:01;47.67;;;3.20;;
8474;SDS011;4274;52.012;8.448;2023-09-19T07:53:31;49.67;;;3.17;;
8474;SDS011;4274;52.012;8.448;2023-09-19T07:56:06;47.20;;;3.10;;
8474;SDS011;4274;52.012;8.448;2023-09-19T07:58:33;54.70;;;3.57;;
8474;SDS011;4274;52.012;8.448;2023-09-19T08:01:04;52.40;;;3.13;;
8474;SDS011;4274;52.012;8.448;2023-09-19T08:03:30;48.30;;;3.23;;
8474;SDS011;4274;52.012;8.448;2023-09-19T08:05:56;64.03;;;3.43;;
8474;SDS011;4274;52.012;8.448;2023-09-19T08:08:25;54.90;;;3.40;;
8474;SDS011;4274;52.012;8.448;2023-09-19T08:10:54;47.47;;;3.50;;
8474;SDS011;4274;52.012;8.448;2023-09-19T08:13:21;58.03;;;3.63;;
8474;SDS011;4274;52.012;8.448;2023-09-19T08:15:50;54.60;;;3.63;;
8474;SDS011;4274;52.012;8.448;2023-09-19T08:18:18;54.20;;;3.80;;
8474;SDS011;4274;52.012;8.448;2023-09-19T08:20:51;55.53;;;3.30;;
8474;SDS011;4274;52.012;8.448;2023-09-19T08:23:17;51.67;;;3.67;;
8474;SDS011;4274;52.012;8.448;2023-09-19T08:25:45;53.23;;;3.70;;
8474;SDS011;4274;52.012;8.448;2023-09-19T08:28:13;50.33;;;3.37;;
8474;SDS011;4274;52.012;8.448;2023-09-19T08:30:44;51.60;;;2.83;;
8474;SDS011;4274;52.012;8.448;2023-09-19T08:33:12;56.30;;;4.30;;
8474;SDS011;4274;52.012;8.448;2023-09-19T08:35:40;51.07;;;3.30;;
8474;SDS011;4274;52.012;8.448;2023-09-19T08:38:08;50.33;;;3.07;;
8474;SDS011;4274;52.012;8.448;2023-09-19T08:40:39;50.90;;;3.70;;
8474;SDS011;4274;52.012;8.448;2023-09-19T08:43:06;48.70;;;3.20;;
8474;SDS011;4274;52.012;8.448;2023-09-19T08:45:32;61.40;;;4.03;;
8474;SDS011;4274;52.012;8.448;2023-09-19T08:50:51;57.90;;;3.90;;
8474;SDS011;4274;52.012;8.448;2023-09-19T08:53:26;51.93;;;4.23;;
8474;SDS011;4274;52.012;8.448;2023-09-19T08:55:56;51.47;;;3.50;;
8474;SDS011;4274;52.012;8.448;2023-09-19T08:58:26;60.43;;;3.77;;
8474;SDS011;4274;52.012;8.448;2023-09-19T09:00:56;55.90;;;4.47;;
8474;SDS011;4274;52.012;8.448;2023-09-19T09:03:23;53.13;;;3.83;;
8474;SDS011;4274;52.012;8.448;2023-09-19T09:05:51;58.70;;;4.63;;
8474;SDS011;4274;52.012;8.448;2023-09-19T09:08:17;52.80;;;3.83;;
8474;SDS011;4274;52.012;8.448;2023-09-19T09:10:46;50.47;;;3.67;;
8474;SDS011;4274;52.012;8.448;2023-09-19T09:13:12;50.07;;;3.43;;
8474;SDS011;4274;52.012;8.448;2023-09-19T09:15:40;63.00;;;4.50;;
8474;SDS011;4274;52.012;8.448;2023-09-19T09:18:07;50.90;;;3.50;;
8474;SDS011;4274;52.012;8.448;2023-09-19T09:20:32;72.03;;;4.50;;
8474;SDS011;4274;52.012;8.448;2023-09-19T09:22:58;53.17;;;3.93;;
8474;SDS011;4274;52.012;8.448;2023-09-19T09:25:46;53.80;;;3.77;;
8474;SDS011;4274;52.012;8.448;2023-09-19T09:28:18;55.23;;;3.50;;
8474;SDS011;4274;52.012;8.448;2023-09-19T09:30:45;53.73;;;3.87;;
8474;SDS011;4274;52.012;8.448;2023-09-19T09:33:12;51.47;;;3.57;;
8474;SDS011;4274;52.012;8.448;2023-09-19T09:35:52;58.03;;;4.53;;
8474;SDS011;4274;52.012;8.448;2023-09-19T09:38:23;56.23;;;3.67;;
8474;SDS011;4274;52.012;8.448;2023-09-19T09:40:53;60.80;;;4.30;;
8474;SDS011;4274;52.012;8.448;2023-09-19T09:43:44;58.67;;;3.92;;
8474;SDS011;4274;52.012;8.448;2023-09-19T09:46:18;60.57;;;4.40;;
8474;SDS011;4274;52.012;8.448;2023-09-19T09:48:47;54.77;;;3.97;;
8474;SDS011;4274;52.012;8.448;2023-09-19T09:51:44;66.33;;;4.00;;
8474;SDS011;4274;52.012;8.448;2023-09-19T09:54:22;51.00;;;3.60;;
8474;SDS011;4274;52.012;8.448;2023-09-19T09:56:52;53.23;;;4.23;;
8474;SDS011;4274;52.012;8.448;2023-09-19T09:59:19;47.77;;;3.50;;
8474;SDS011;4274;52.012;8.448;2023-09-19T10:01:49;52.03;;;3.87;;
8474;SDS011;4274;52.012;8.448;2023-09-19T10:04:36;57.40;;;4.03;;
8474;SDS011;4274;52.012;8.448;2023-09-19T10:07:07;56.97;;;4.57;;
8474;SDS011;4274;52.012;8.448;2023-09-19T10:09:45;52.50;;;3.90;;
8474;SDS011;4274;52.012;8.448;2023-09-19T10:12:12;50.43;;;3.83;;
8474;SDS011;4274;52.012;8.448;2023-09-19T10:14:40;52.17;;;3.70;;
8474;SDS011;4274;52.012;8.448;2023-09-19T10:17:09;48.73;;;3.40;;
8474;SDS011;4274;52.012;8.448;2023-09-19T10:20:17;50.30;;;3.87;;
8474;SDS011;4274;52.012;8.448;2023-09-19T10:22:26;54.70;;;4.23;;
8474;SDS011;4274;52.012;8.448;2023-09-19T10:24:53;65.23;;;4.47;;
8474;SDS011;4274;52.012;8.448;2023-09-19T10:27:20;54.80;;;3.60;;
8474;SDS011;4274;52.012;8.448;2023-09-19T10:29:48;48.43;;;3.70;;
8474;SDS011;4274;52.012;8.448;2023-09-19T10:32:20;56.50;;;3.53;;
8474;SDS011;4274;52.012;8.448;2023-09-19T10:34:48;61.40;;;3.70;;
8474;SDS011;4274;52.012;8.448;2023-09-19T10:37:15;50.10;;;3.37;;
8474;SDS011;4274;52.012;8.448;2023-09-19T10:39:44;56.50;;;3.63;;
8474;SDS011;4274;52.012;8.448;2023-09-19T10:42:13;50.23;;;3.30;;
8474;SDS011;4274;52.012;8.448;2023-09-19T10:44:42;53.17;;;4.00;;
8474;SDS011;4274;52.012;8.448;2023-09-19T10:47:10;56.50;;;3.70;;
8474;SDS011;4274;52.012;8.448;2023-09-19T10:49:42;56.60;;;4.30;;
8474;SDS011;4274;52.012;8.448;2023-09-19T10:52:11;51.90;;;3.30;;
8474;SDS011;4274;52.012;8.448;2023-09-19T10:54:44;54.37;;;3.80;;
8474;SDS011;4274;52.012;8.448;2023-09-19T10:57:19;57.43;;;3.30;;
8474;SDS011;4274;52.012;8.448;2023-09-19T11:00:02;59.10;;;4.10;;
8474;SDS011;4274;52.012;8.448;2023-09-19T11:05:37;54.30;;;3.70;;
8474;SDS011;4274;52.012;8.448;2023-09-19T11:08:06;50.97;;;3.80;;
8474;SDS011;4274;52.012;8.448;2023-09-19T11:10:45;54.87;;;4.10;;
8474;SDS011;4274;52.012;8.448;2023-09-19T11:13:28;49.63;;;3.63;;
8474;SDS011;4274;52.012;8.448;2023-09-19T11:21:51;52.37;;;3.83;;
8474;SDS011;4274;52.012;8.448;2023-09-19T11:26:47;52.77;;;3.10;;
8474;SDS011;4274;52.012;8.448;2023-09-19T11:29:28;54.53;;;3.20;;
8474;SDS011;4274;52.012;8.448;2023-09-19T11:31:56;51.33;;;3.30;;
8474;SDS011;4274;52.012;8.448;2023-09-19T11:39:39;52.47;;;3.67;;
8474;SDS011;4274;52.012;8.448;2023-09-19T11:48:11;54.17;;;3.60;;
8474;SDS011;4274;52.012;8.448;2023-09-19T11:50:44;50.70;;;3.37;;
8474;SDS011;4274;52.012;8.448;2023-09-19T11:53:12;55.67;;;3.67;;
8474;SDS011;4274;52.012;8.448;2023-09-19T11:55:38;55.13;;;3.93;;
8474;SDS011;4274;52.012;8.448;2023-09-19T11:58:08;50.70;;;3.00;;
8474;SDS011;4274;52.012;8.448;2023-09-19T12:00:34;54.93;;;3.70;;
8474;SDS011;4274;52.012;8.448;2023-09-19T12:03:07;51.87;;;3.00;;
8474;SDS011;4274;52.012;8.448;2023-09-19T12:05:34;52.37;;;3.67;;
8474;SDS011;4274;52.012;8.448;2023-09-19T12:08:02;56.87;;;3.37;;
8474;SDS011;4274;52.012;8.448;2023-09-19T12:11:11;56.63;;;3.53;;
8474;SDS011;4274;52.012;8.448;2023-09-19T12:13:27;56.23;;;3.83;;
8474;SDS011;4274;52.012;8.448;2023-09-19T12:15:55;53.97;;;3.50;;
8474;SDS011;4274;52.012;8.448;2023-09-19T12:18:29;52.03;;;3.30;;
8474;SDS011;4274;52.012;8.448;2023-09-19T12:20:55;48.50;;;3.40;;
8474;SDS011;4274;52.012;8.448;2023-09-19T12:23:23;51.33;;;3.77;;
8474;SDS011;4274;52.012;8.448;2023-09-19T12:25:48;49.80;;;3.03;;
8474;SDS011;4274;52.012;8.448;2023-09-19T12:28:18;67.30;;;3.23;;
8474;SDS011;4274;52.012;8.448;2023-09-19T12:30:47;54.83;;;3.60;;
8474;SDS011;4274;52.012;8.448;2023-09-19T12:33:16;51.67;;;2.97;;
8474;SDS011;4274;52.012;8.448;2023-09-19T12:35:46;48.53;;;2.90;;
8474;SDS011;4274;52.012;8.448;2023-09-19T12:38:22;52.03;;;3.17;;
8474;SDS011;4274;52.012;8.448;2023-09-19T12:40:49;50.93;;;3.27;;
8474;SDS011;4274;52.012;8.448;2023-09-19T12:43:16;49.77;;;3.30;;
8474;SDS011;4274;52.012;8.448;2023-09-19T12:45:43;49.67;;;3.33;;
8474;SDS011;4274;52.012;8.448;2023-09-19T12:51:08;57.10;;;3.60;;
8474;SDS011;4274;52.012;8.448;2023-09-19T12:53:42;51.10;;;3.10;;
8474;SDS011;4274;52.012;8.448;2023-09-19T12:56:12;50.87;;;3.10;;
8474;SDS011;4274;52.012;8.448;2023-09-19T12:58:52;50.03;;;2.90;;
8474;SDS011;4274;52.012;8.448;2023-09-19T13:01:19;61.53;;;3.73;;
8474;SDS011;4274;52.012;8.448;2023-09-19T13:03:45;47.30;;;3.30;;
8474;SDS011;4274;52.012;8.448;2023-09-19T13:06:11;51.20;;;3.17;;
8474;SDS011;4274;52.012;8.448;2023-09-19T13:08:38;52.67;;;3.20;;
8474;SDS011;4274;52.012;8.448;2023-09-19T13:13:36;55.27;;;3.00;;
8474;SDS011;4274;52.012;8.448;2023-09-19T13:16:03;53.50;;;4.03;;
8474;SDS011;4274;52.012;8.448;2023-09-19T13:18:41;52.83;;;2.90;;
8474;SDS011;4274;52.012;8.448;2023-09-19T13:21:10;49.23;;;3.30;;
8474;SDS011;4274;52.012;8.448;2023-09-19T13:23:41;49.63;;;3.07;;
8474;SDS011;4274;52.012;8.448;2023-09-19T13:26:10;51.97;;;3.03;;
8474;SDS011;4274;52.012;8.448;2023-09-19T13:28:37;51.07;;;3.63;;
8474;SDS011;4274;52.012;8.448;2023-09-19T13:31:03;49.23;;;2.30;;
8474;SDS011;4274;52.012;8.448;2023-09-19T13:33:29;52.60;;;3.17;;
8474;SDS011;4274;52.012;8.448;2023-09-19T13:35:55;51.60;;;3.67;;
8474;SDS011;4274;52.012;8.448;2023-09-19T13:38:22;46.70;;;2.47;;
8474;SDS011;4274;52.012;8.448;2023-09-19T13:40:47;52.57;;;2.80;;
8474;SDS011;4274;52.012;8.448;2023-09-19T13:43:13;49.87;;;2.83;;
8474;SDS011;4274;52.012;8.448;2023-09-19T13:45:39;52.17;;;2.90;;
8474;SDS011;4274;52.012;8.448;2023-09-19T13:48:07;45.87;;;2.43;;
8474;SDS011;4274;52.012;8.448;2023-09-19T13:50:34;56.63;;;3.23;;
8474;SDS011;4274;52.012;8.448;2023-09-19T13:53:01;50.63;;;2.90;;
8474;SDS011;4274;52.012;8.448;2023-09-19T13:55:28;50.77;;;3.17;;
8474;SDS011;4274;52.012;8.448;2023-09-19T13:57:54;54.43;;;3.53;;
8474;SDS011;4274;52.012;8.448;2023-09-19T14:00:20;53.13;;;3.57;;
8474;SDS011;4274;52.012;8.448;2023-09-19T14:02:47;52.70;;;2.87;;
8474;SDS011;4274;52.012;8.448;2023-09-19T14:05:14;51.47;;;2.87;;
8474;SDS011;4274;52.012;8.448;2023-09-19T14:07:41;47.00;;;2.80;;
8474;SDS011;4274;52.012;8.448;2023-09-19T14:10:07;50.47;;;2.60;;
8474;SDS011;4274;52.012;8.448;2023-09-19T14:12:35;48.53;;;2.87;;
8474;SDS011;4274;52.012;8.448;2023-09-19T14:15:01;53.13;;;3.40;;
8474;SDS011;4274;52.012;8.448;2023-09-19T14:17:27;46.73;;;2.40;;
8474;SDS011;4274;52.012;8.448;2023-09-19T14:19:53;45.70;;;2.60;;
8474;SDS011;4274;52.012;8.448;2023-09-19T14:22:18;50.17;;;2.83;;
8474;SDS011;4274;52.012;8.448;2023-09-19T14:24:44;47.67;;;3.20;;
8474;SDS011;4274;52.012;8.448;2023-09-19T14:27:10;50.33;;;2.80;;
8474;SDS011;4274;52.012;8.448;2023-09-19T14:29:36;52.43;;;2.90;;
8474;SDS011;4274;52.012;8.448;2023-09-19T14:32:02;50.00;;;3.10;;
8474;SDS011;4274;52.012;8.448;2023-09-19T14:34:27;53.90;;;3.17;;
8474;SDS011;4274;52.012;8.448;2023-09-19T14:36:53;49.13;;;2.60;;
8474;SDS011;4274;52.012;8.448;2023-09-19T14:39:22;57.43;;;3.40;;
8474;SDS011;4274;52.012;8.448;2023-09-19T14:41:48;52.43;;;2.63;;
8474;SDS011;4274;52.012;8.448;2023-09-19T14:44:14;49.40;;;2.90;;
8474;SDS011;4274;52.012;8.448;2023-09-19T14:46:43;50.67;;;3.50;;
8474;SDS011;4274;52.012;8.448;2023-09-19T14:49:11;47.90;;;2.63;;
8474;SDS011;4274;52.012;8.448;2023-09-19T14:51:37;51.40;;;3.30;;
8474;SDS011;4274;52.012;8.448;2023-09-19T14:54:05;47.70;;;2.57;;
8474;SDS011;4274;52.012;8.448;2023-09-19T14:56:32;49.30;;;2.97;;
8474;SDS011;4274;52.012;8.448;2023-09-19T14:58:58;49.97;;;3.07;;
8474;SDS011;4274;52.012;8.448;2023-09-19T15:01:23;50.67;;;3.43;;
8474;SDS011;4274;52.012;8.448;2023-09-19T15:03:49;51.53;;;3.10;;
8474;SDS011;4274;52.012;8.448;2023-09-19T15:06:14;47.87;;;2.70;;
8474;SDS011;4274;52.012;8.448;2023-09-19T15:08:42;49.37;;;3.40;;
8474;SDS011;4274;52.012;8.448;2023-09-19T15:11:12;49.97;;;3.60;;
8474;SDS011;4274;52.012;8.448;2023-09-19T15:13:42;48.90;;;3.10;;
8474;SDS011;4274;52.012;8.448;2023-09-19T15:16:08;49.07;;;3.00;;
8474;SDS011;4274;52.012;8.448;2023-09-19T15:18:35;54.57;;;3.20;;
8474;SDS011;4274;52.012;8.448;2023-09-19T15:21:04;56.83;;;3.50;;
8474;SDS011;4274;52.012;8.448;2023-09-19T15:23:30;52.17;;;3.00;;
8474;SDS011;4274;52.012;8.448;2023-09-19T15:25:59;52.77;;;3.20;;
8474;SDS011;4274;52.012;8.448;2023-09-19T15:28:28;47.97;;;2.83;;
8474;SDS011;4274;52.012;8.448;2023-09-19T15:33:33;46.80;;;2.37;;
8474;SDS011;4274;52.012;8.448;2023-09-19T15:36:03;52.50;;;2.60;;
8474;SDS011;4274;52.012;8.448;2023-09-19T15:38:54;52.43;;;2.67;;
8474;SDS011;4274;52.012;8.448;2023-09-19T15:41:29;66.33;;;2.60;;
8474;SDS011;4274;52.012;8.448;2023-09-19T15:43:56;47.23;;;2.27;;
8474;SDS011;4274;52.012;8.448;2023-09-19T15:46:26;48.80;;;2.73;;
8474;SDS011;4274;52.012;8.448;2023-09-19T15:48:52;54.23;;;2.50;;
8474;SDS011;4274;52.012;8.448;2023-09-19T15:51:19;48.77;;;2.50;;
8474;SDS011;4274;52.012;8.448;2023-09-19T15:53:45;47.37;;;2.20;;
8474;SDS011;4274;52.012;8.448;2023-09-19T15:56:12;49.37;;;2.23;;
8474;SDS011;4274;52.012;8.448;2023-09-19T15:58:41;52.10;;;2.43;;
8474;SDS011;4274;52.012;8.448;2023-09-19T16:01:09;51.47;;;2.63;;